DRZA/AJY METAR and TAF weather

Enter ICAO airport designator
Station Type Date Time Source
DRZA METAR 2019/04/19 18:00 UTC NOAA

DRZA 191800Z 12014KT 8000 NSC 35/07 Q1012


Station Type Date Time Source
DRZA Decoded METAR 2019/04/19 18:00 UTC NOAA

Agadez, Niger (DRZA) 16-58N 007-59E 502M
Apr 19, 2019 - 02:00 PM EDT / 2019.04.19 1800 UTC
Wind: from the ESE (120 degrees) at 16 MPH (14 KT):0
Visibility: 4 mile(s):0
Temperature: 95 F (35 C)
Dew Point: 44 F (7 C)
Relative Humidity: 17%
Pressure (altimeter): 29.88 in. Hg (1012 hPa)
ob: DRZA 191800Z 12014KT 8000 NSC 35/07 Q1012
cycle: 18

Station Type Date Time Source
DRZA TAF 2019/04/19 18:22 UTC NOAA

TAF DRZA 191700Z 1918/2018 10012KT 6000 NSC
TEMPO 1918/1920 3000 DU

Example: see airport list